createdAt,value
2022-11-01T00:10:37.576Z,10.84
2022-11-01T00:21:04.919Z,10.84
2022-11-01T00:31:32.293Z,11.10
2022-11-01T00:41:59.709Z,11.18
2022-11-01T00:52:26.996Z,11.26
2022-11-01T01:02:54.397Z,11.42
2022-11-01T01:13:22.101Z,11.55
2022-11-01T01:23:51.452Z,11.42
2022-11-01T01:34:19.183Z,11.30
2022-11-01T01:45:11.991Z,11.48
2022-11-01T01:55:44.087Z,11.71
2022-11-01T02:06:13.837Z,11.70
2022-11-01T02:16:53.564Z,11.64
2022-11-01T02:27:28.800Z,11.81
2022-11-01T02:38:02.628Z,11.66
2022-11-01T02:48:30.392Z,11.59
2022-11-01T02:58:59.091Z,11.58
2022-11-01T03:09:26.869Z,11.53
2022-11-01T03:20:00.692Z,11.51
2022-11-01T03:30:30.628Z,11.52
2022-11-01T03:41:01.575Z,11.37
2022-11-01T03:51:28.953Z,11.23
2022-11-01T04:01:56.386Z,11.21
2022-11-01T04:12:23.827Z,11.23
2022-11-01T04:22:51.135Z,11.12
2022-11-01T04:33:18.551Z,11.10
2022-11-01T04:43:46.009Z,11.09
2022-11-01T04:54:13.419Z,11.14
2022-11-01T05:04:40.669Z,11.16
2022-11-01T05:15:10.683Z,11.09
2022-11-01T05:25:38.442Z,11.15
2022-11-01T05:36:06.381Z,11.63
2022-11-01T05:46:33.647Z,11.81
2022-11-01T05:57:00.972Z,11.71
2022-11-01T06:07:28.756Z,12.04
2022-11-01T06:17:59.872Z,12.11
2022-11-01T06:28:27.559Z,11.78
2022-11-01T06:38:54.896Z,11.51
2022-11-01T06:49:22.365Z,11.30
2022-11-01T06:59:49.756Z,11.35
2022-11-01T07:10:17.252Z,11.42
2022-11-01T07:20:44.598Z,11.41
2022-11-01T07:31:12.156Z,11.52
2022-11-01T07:41:39.679Z,11.64
2022-11-01T07:52:07.065Z,11.78
2022-11-01T08:02:34.998Z,12.07
2022-11-01T08:13:07.565Z,12.39
2022-11-01T08:23:34.865Z,12.64
2022-11-01T08:34:02.244Z,12.91
2022-11-01T08:44:29.769Z,13.19
2022-11-01T08:54:57.173Z,13.46
2022-11-01T09:05:24.637Z,13.71
2022-11-01T09:15:52.699Z,13.91
2022-11-01T09:26:20.171Z,13.96
2022-11-01T09:36:47.831Z,14.05
2022-11-01T09:47:20.566Z,14.04
2022-11-01T09:57:54.503Z,13.94
2022-11-01T10:08:37.062Z,13.91
2022-11-01T10:19:11.551Z,14.00
2022-11-01T10:29:47.453Z,14.13
2022-11-01T10:40:21.033Z,14.24
2022-11-01T10:50:49.181Z,14.28
2022-11-01T11:01:22.066Z,14.27
2022-11-01T11:11:50.988Z,14.31
2022-11-01T11:22:18.608Z,14.48
2022-11-01T11:32:50.568Z,14.53
2022-11-01T11:43:24.295Z,14.53
2022-11-01T11:54:22.412Z,14.66
2022-11-01T12:04:55.242Z,14.65
2022-11-01T12:15:31.061Z,14.58
2022-11-01T12:26:01.307Z,14.55
2022-11-01T12:36:32.781Z,14.37
2022-11-01T12:47:05.629Z,14.29
2022-11-01T12:57:34.925Z,14.24
2022-11-01T13:08:13.866Z,14.22
2022-11-01T13:18:48.977Z,14.21
2022-11-01T13:29:23.062Z,14.09
2022-11-01T13:40:04.721Z,13.97
2022-11-01T13:51:01.485Z,13.84
2022-11-01T14:01:36.500Z,13.75
2022-11-01T14:12:31.073Z,13.58
2022-11-01T14:22:59.816Z,13.35
2022-11-01T14:33:27.271Z,13.26
2022-11-01T14:54:43.393Z,13.05
2022-11-01T15:05:15.315Z,12.88
2022-11-01T15:15:42.745Z,12.76
2022-11-01T15:26:13.346Z,12.61
2022-11-01T15:36:41.788Z,12.47
2022-11-01T15:47:15.858Z,12.38
2022-11-01T15:57:47.005Z,12.37
2022-11-01T16:08:22.821Z,12.33
2022-11-01T16:18:50.363Z,12.27
2022-11-01T16:29:18.240Z,12.26
2022-11-01T16:39:47.052Z,12.22
2022-11-01T16:50:20.002Z,12.17
2022-11-01T17:00:54.702Z,12.21
2022-11-01T17:11:22.461Z,12.25
2022-11-01T17:21:50.518Z,12.18
2022-11-01T17:32:17.882Z,12.14
2022-11-01T17:42:45.226Z,12.03
2022-11-01T17:53:21.735Z,11.90
2022-11-01T18:03:49.437Z,11.91
2022-11-01T18:14:20.810Z,11.93
2022-11-01T18:24:52.825Z,11.86
2022-11-01T18:35:31.905Z,11.81
2022-11-01T18:56:51.720Z,11.59
2022-11-01T19:07:21.653Z,11.54
2022-11-01T19:17:53.160Z,11.58
2022-11-01T19:28:27.751Z,11.64
2022-11-01T19:38:55.703Z,11.63
2022-11-01T19:49:26.285Z,11.63
2022-11-01T19:59:53.889Z,11.62
2022-11-01T20:10:21.227Z,11.57
2022-11-01T20:20:48.544Z,11.62
2022-11-01T20:31:15.830Z,11.64
2022-11-01T20:41:43.176Z,11.69
2022-11-01T20:52:38.135Z,11.72
2022-11-01T21:02:58.989Z,11.79
2022-11-01T21:13:30.224Z,11.73
2022-11-01T21:23:58.581Z,11.75
2022-11-01T21:34:32.073Z,11.78
2022-11-01T21:44:59.980Z,11.86
2022-11-01T21:55:27.313Z,11.85
2022-11-01T22:05:55.084Z,11.85
2022-11-01T22:16:22.688Z,11.82
2022-11-01T22:26:50.013Z,11.74
2022-11-01T22:37:17.300Z,11.67
2022-11-01T22:47:46.134Z,11.73
2022-11-01T22:58:32.524Z,11.87
2022-11-01T23:09:05.583Z,11.92
2022-11-01T23:19:33.628Z,12.03
2022-11-01T23:30:02.704Z,12.06
2022-11-01T23:40:34.676Z,12.06
2022-11-01T23:51:02.152Z,11.92
